Chelmsley Wood, United Kingdom
Current Conditions -  °F | °C
As of 8:50 AM on Wednesday 22 Oct 2014 (Local Time) from EGBB Reporting Station
Clear Clear  
Wind Chill:   Ceiling: Unl
Heat Index:   Visibility: 6mi
Dew Point:   Wind: 5mph
Humidity: 81%   Direction: 240°WSW
Pressure: 30.27"   Gusts: NA
Location:  52.48°N, 1.74°W
Report Text: EGBB 220750Z 24004KT 210V270 CAVOK 07/04 Q1025
Loading
Personal Weather Stations






























Interactive Weather Map
Tropical Storm Tracking
New forecast layout! Learn more

10-Day Weather Forecast

Advertisements
Track Severe Weather on mobile